Карточка аэропорта URSS

Внимание!
Информация на этой странице в стадии наполнения.
Если вы не увидели какой-то информации, или заметили неточность - пожалуйста сообщите нам!
Спасибо!
Команда RU-STAFF
Название аэропортаСочи
Название аэропорта (англ.)Sochi
Превышение89 ft. (27.1 m.)
Координаты43°26.634', 39°56.55'
Высота перехода13000 ft
Эшелон переходаFL140 (QNH >= 1013); FL150 (QNH 977-1012); FL160 (QNH < 977)
Коды ответчика1060-1077
Зона ОрВДРостов-на-Дону РПИ (URRV)
Данные METARURSS 272030Z 05004MPS 9999 NSC 05/M08 Q1014 WS ALL RWY R02/010070 R06/010070 NOSIG RMK R06/08006MPS QFE759
Проноз погоды (TAF)URSS 271955Z 2721/2821 04007MPS 9999 NSC BECMG 2800/2802 SCT050CB OVC100 TEMPO 2802/2806 11005G10MPS -SHRA BKN050CB OVC100 BECMG 2807/2809 18004G09MPS FM281100 15004G09MPS 9999 -SHRA SCT016 BKN040CB OVC100 TEMPO 2811/2818 -TSRA BECMG 2818/2820 05003G08MPS TEMPO 2818/2821 -TSRA
NOTAMshow/hide NOTAM
AWOS   TABLE

Информация о ВПП

ВПП Длина ВПП (м.) Покрытие Курс ВПП Частота ILS
022500Цементобетон22110.5
062890Цементобетон58111.1
202500Цементобетон202 
242890Цементобетон238 

Диспетчерские позиции

Позывной Наименование органа УВД Частота
URSS_DELСочи-Деливери132.700
URSS_APPСочи-Подход124.600
URSS_TWRСочи-Старт121.200
URSS_R_APPСочи-Круг119.700
URSS_GNDСочи-Руление119.000
URSS_FM1119.000



Спутниковое изображение